sensor_id;sensor_type;location;lat;lon;timestamp;P1;durP1;ratioP1;P2;durP2;ratioP2
59374;SDS011;45172;55.006;73.460;2023-06-26T00:01:29;13.38;;;8.70;;
59374;SDS011;45172;55.006;73.460;2023-06-26T00:03:59;23.48;;;18.38;;
59374;SDS011;45172;55.006;73.460;2023-06-26T00:06:26;24.77;;;19.38;;
59374;SDS011;45172;55.006;73.460;2023-06-26T00:08:53;25.70;;;18.55;;
59374;SDS011;45172;55.006;73.460;2023-06-26T00:11:20;23.73;;;18.20;;
59374;SDS011;45172;55.006;73.460;2023-06-26T00:13:47;21.77;;;17.38;;
59374;SDS011;45172;55.006;73.460;2023-06-26T00:16:13;26.33;;;18.10;;
59374;SDS011;45172;55.006;73.460;2023-06-26T00:18:39;23.33;;;16.60;;
59374;SDS011;45172;55.006;73.460;2023-06-26T00:21:05;14.88;;;8.55;;
59374;SDS011;45172;55.006;73.460;2023-06-26T00:23:30;21.92;;;16.85;;
59374;SDS011;45172;55.006;73.460;2023-06-26T00:25:58;22.42;;;17.52;;
59374;SDS011;45172;55.006;73.460;2023-06-26T00:28:25;12.65;;;8.52;;
59374;SDS011;45172;55.006;73.460;2023-06-26T00:30:51;14.75;;;8.18;;
59374;SDS011;45172;55.006;73.460;2023-06-26T00:33:17;18.92;;;15.52;;
59374;SDS011;45172;55.006;73.460;2023-06-26T00:35:44;18.85;;;14.85;;
59374;SDS011;45172;55.006;73.460;2023-06-26T00:38:10;15.68;;;14.10;;
59374;SDS011;45172;55.006;73.460;2023-06-26T00:40:36;17.58;;;14.90;;
59374;SDS011;45172;55.006;73.460;2023-06-26T00:43:02;17.70;;;14.43;;
59374;SDS011;45172;55.006;73.460;2023-06-26T00:45:28;14.95;;;13.43;;
59374;SDS011;45172;55.006;73.460;2023-06-26T00:47:54;16.85;;;13.63;;
59374;SDS011;45172;55.006;73.460;2023-06-26T00:50:21;15.70;;;13.73;;
59374;SDS011;45172;55.006;73.460;2023-06-26T00:52:47;9.75;;;7.32;;
59374;SDS011;45172;55.006;73.460;2023-06-26T00:55:13;10.70;;;7.13;;
59374;SDS011;45172;55.006;73.460;2023-06-26T00:57:39;11.23;;;7.30;;
59374;SDS011;45172;55.006;73.460;2023-06-26T01:00:06;16.63;;;12.23;;
59374;SDS011;45172;55.006;73.460;2023-06-26T01:02:33;18.75;;;12.95;;
59374;SDS011;45172;55.006;73.460;2023-06-26T01:04:59;13.57;;;12.10;;
59374;SDS011;45172;55.006;73.460;2023-06-26T01:07:35;15.43;;;13.68;;
59374;SDS011;45172;55.006;73.460;2023-06-26T01:10:06;17.73;;;12.48;;
59374;SDS011;45172;55.006;73.460;2023-06-26T01:12:34;17.67;;;12.75;;
59374;SDS011;45172;55.006;73.460;2023-06-26T01:15:01;18.38;;;13.15;;
59374;SDS011;45172;55.006;73.460;2023-06-26T01:17:28;13.15;;;11.82;;
59374;SDS011;45172;55.006;73.460;2023-06-26T01:19:59;15.40;;;12.13;;
59374;SDS011;45172;55.006;73.460;2023-06-26T01:27:56;16.92;;;13.45;;
59374;SDS011;45172;55.006;73.460;2023-06-26T01:30:23;18.30;;;12.98;;
59374;SDS011;45172;55.006;73.460;2023-06-26T01:32:50;20.48;;;13.52;;
59374;SDS011;45172;55.006;73.460;2023-06-26T01:35:17;15.25;;;12.70;;
59374;SDS011;45172;55.006;73.460;2023-06-26T01:37:44;14.15;;;11.48;;
59374;SDS011;45172;55.006;73.460;2023-06-26T01:40:10;14.32;;;10.95;;
59374;SDS011;45172;55.006;73.460;2023-06-26T01:42:36;13.63;;;11.25;;
59374;SDS011;45172;55.006;73.460;2023-06-26T01:45:06;21.08;;;11.77;;
59374;SDS011;45172;55.006;73.460;2023-06-26T01:47:44;16.63;;;11.80;;
59374;SDS011;45172;55.006;73.460;2023-06-26T01:50:22;22.45;;;13.90;;
59374;SDS011;45172;55.006;73.460;2023-06-26T01:53:04;25.85;;;15.35;;
59374;SDS011;45172;55.006;73.460;2023-06-26T01:55:53;22.52;;;14.95;;
59374;SDS011;45172;55.006;73.460;2023-06-26T01:58:26;23.95;;;16.58;;
59374;SDS011;45172;55.006;73.460;2023-06-26T02:00:54;19.08;;;14.25;;
59374;SDS011;45172;55.006;73.460;2023-06-26T02:03:20;18.95;;;14.32;;
59374;SDS011;45172;55.006;73.460;2023-06-26T02:05:46;17.30;;;13.10;;
59374;SDS011;45172;55.006;73.460;2023-06-26T02:08:13;18.38;;;13.27;;
59374;SDS011;45172;55.006;73.460;2023-06-26T02:10:40;17.27;;;13.02;;
59374;SDS011;45172;55.006;73.460;2023-06-26T02:13:06;10.95;;;7.13;;
59374;SDS011;45172;55.006;73.460;2023-06-26T02:15:32;15.02;;;13.35;;
59374;SDS011;45172;55.006;73.460;2023-06-26T02:17:58;17.42;;;13.48;;
59374;SDS011;45172;55.006;73.460;2023-06-26T02:20:24;20.60;;;13.35;;
59374;SDS011;45172;55.006;73.460;2023-06-26T02:22:50;18.00;;;12.82;;
59374;SDS011;45172;55.006;73.460;2023-06-26T02:25:17;18.10;;;12.63;;
59374;SDS011;45172;55.006;73.460;2023-06-26T02:27:43;15.73;;;12.43;;
59374;SDS011;45172;55.006;73.460;2023-06-26T02:30:10;14.75;;;12.80;;
59374;SDS011;45172;55.006;73.460;2023-06-26T02:32:36;16.75;;;11.88;;
59374;SDS011;45172;55.006;73.460;2023-06-26T02:35:02;14.60;;;11.57;;
59374;SDS011;45172;55.006;73.460;2023-06-26T02:37:28;16.30;;;11.77;;
59374;SDS011;45172;55.006;73.460;2023-06-26T02:39:56;16.75;;;12.73;;
59374;SDS011;45172;55.006;73.460;2023-06-26T02:42:22;19.40;;;12.75;;
59374;SDS011;45172;55.006;73.460;2023-06-26T02:44:48;14.35;;;11.30;;
59374;SDS011;45172;55.006;73.460;2023-06-26T02:47:14;16.00;;;10.18;;
59374;SDS011;45172;55.006;73.460;2023-06-26T02:49:40;13.43;;;10.63;;
59374;SDS011;45172;55.006;73.460;2023-06-26T02:52:06;13.82;;;10.10;;
59374;SDS011;45172;55.006;73.460;2023-06-26T02:54:32;15.10;;;8.68;;
59374;SDS011;45172;55.006;73.460;2023-06-26T02:56:58;17.15;;;8.82;;
59374;SDS011;45172;55.006;73.460;2023-06-26T02:59:25;14.00;;;8.52;;
59374;SDS011;45172;55.006;73.460;2023-06-26T03:01:51;17.23;;;9.05;;
59374;SDS011;45172;55.006;73.460;2023-06-26T03:04:17;13.63;;;8.93;;
59374;SDS011;45172;55.006;73.460;2023-06-26T03:06:44;13.65;;;8.88;;
59374;SDS011;45172;55.006;73.460;2023-06-26T03:09:10;16.50;;;8.13;;
59374;SDS011;45172;55.006;73.460;2023-06-26T03:11:36;13.60;;;7.97;;
59374;SDS011;45172;55.006;73.460;2023-06-26T03:14:01;11.68;;;7.53;;
59374;SDS011;45172;55.006;73.460;2023-06-26T03:16:27;14.88;;;7.28;;
59374;SDS011;45172;55.006;73.460;2023-06-26T03:18:54;12.68;;;7.55;;
59374;SDS011;45172;55.006;73.460;2023-06-26T03:21:19;10.60;;;6.75;;
59374;SDS011;45172;55.006;73.460;2023-06-26T03:23:45;13.80;;;7.68;;
59374;SDS011;45172;55.006;73.460;2023-06-26T03:26:12;12.95;;;7.13;;
59374;SDS011;45172;55.006;73.460;2023-06-26T03:28:40;13.73;;;6.22;;
59374;SDS011;45172;55.006;73.460;2023-06-26T03:31:07;23.67;;;8.45;;
59374;SDS011;45172;55.006;73.460;2023-06-26T03:33:33;52.70;;;17.23;;
59374;SDS011;45172;55.006;73.460;2023-06-26T03:35:59;26.38;;;8.63;;
59374;SDS011;45172;55.006;73.460;2023-06-26T03:38:25;13.88;;;6.40;;
59374;SDS011;45172;55.006;73.460;2023-06-26T03:40:51;18.50;;;7.15;;
59374;SDS011;45172;55.006;73.460;2023-06-26T03:43:18;28.38;;;7.45;;
59374;SDS011;45172;55.006;73.460;2023-06-26T03:45:44;26.30;;;8.23;;
59374;SDS011;45172;55.006;73.460;2023-06-26T03:48:10;18.48;;;6.57;;
59374;SDS011;45172;55.006;73.460;2023-06-26T03:50:36;15.07;;;6.03;;
59374;SDS011;45172;55.006;73.460;2023-06-26T03:53:02;46.15;;;13.60;;
59374;SDS011;45172;55.006;73.460;2023-06-26T03:55:28;114.85;;;29.27;;
59374;SDS011;45172;55.006;73.460;2023-06-26T03:57:54;17.88;;;6.65;;
59374;SDS011;45172;55.006;73.460;2023-06-26T04:00:20;9.85;;;4.55;;
59374;SDS011;45172;55.006;73.460;2023-06-26T04:02:46;13.48;;;5.22;;
59374;SDS011;45172;55.006;73.460;2023-06-26T04:05:12;6.15;;;4.10;;
59374;SDS011;45172;55.006;73.460;2023-06-26T04:07:39;9.27;;;4.80;;
59374;SDS011;45172;55.006;73.460;2023-06-26T04:10:06;7.38;;;4.60;;
59374;SDS011;45172;55.006;73.460;2023-06-26T04:12:36;12.40;;;6.00;;
59374;SDS011;45172;55.006;73.460;2023-06-26T04:15:01;100.05;;;25.45;;
59374;SDS011;45172;55.006;73.460;2023-06-26T04:17:28;207.23;;;40.22;;
59374;SDS011;45172;55.006;73.460;2023-06-26T04:19:54;86.68;;;18.25;;
59374;SDS011;45172;55.006;73.460;2023-06-26T04:22:20;69.65;;;17.20;;
59374;SDS011;45172;55.006;73.460;2023-06-26T04:24:46;42.88;;;10.82;;
59374;SDS011;45172;55.006;73.460;2023-06-26T04:27:12;60.08;;;12.05;;
59374;SDS011;45172;55.006;73.460;2023-06-26T04:29:42;61.65;;;11.88;;
59374;SDS011;45172;55.006;73.460;2023-06-26T04:32:08;114.43;;;18.30;;
59374;SDS011;45172;55.006;73.460;2023-06-26T04:34:34;13.63;;;4.70;;
59374;SDS011;45172;55.006;73.460;2023-06-26T04:37:02;65.30;;;12.65;;
59374;SDS011;45172;55.006;73.460;2023-06-26T04:39:30;12.13;;;4.60;;
59374;SDS011;45172;55.006;73.460;2023-06-26T04:41:56;70.63;;;12.52;;
59374;SDS011;45172;55.006;73.460;2023-06-26T04:44:22;74.28;;;13.27;;
59374;SDS011;45172;55.006;73.460;2023-06-26T04:46:48;184.10;;;25.48;;
59374;SDS011;45172;55.006;73.460;2023-06-26T04:49:15;188.90;;;26.92;;
59374;SDS011;45172;55.006;73.460;2023-06-26T04:51:43;159.55;;;25.15;;
59374;SDS011;45172;55.006;73.460;2023-06-26T04:54:09;28.13;;;5.30;;
59374;SDS011;45172;55.006;73.460;2023-06-26T04:56:36;7.93;;;4.00;;
59374;SDS011;45172;55.006;73.460;2023-06-26T04:59:05;8.40;;;3.40;;
59374;SDS011;45172;55.006;73.460;2023-06-26T05:01:31;4.32;;;3.30;;
59374;SDS011;45172;55.006;73.460;2023-06-26T05:04:01;13.38;;;3.63;;
59374;SDS011;45172;55.006;73.460;2023-06-26T05:06:28;4.15;;;3.60;;
59374;SDS011;45172;55.006;73.460;2023-06-26T05:08:54;13.40;;;3.45;;
59374;SDS011;45172;55.006;73.460;2023-06-26T05:11:20;6.35;;;3.33;;
59374;SDS011;45172;55.006;73.460;2023-06-26T05:13:46;8.88;;;3.50;;
59374;SDS011;45172;55.006;73.460;2023-06-26T05:16:12;8.52;;;3.50;;
59374;SDS011;45172;55.006;73.460;2023-06-26T05:18:38;11.75;;;3.53;;
59374;SDS011;45172;55.006;73.460;2023-06-26T05:21:04;9.73;;;3.50;;
59374;SDS011;45172;55.006;73.460;2023-06-26T05:23:31;14.77;;;3.42;;
59374;SDS011;45172;55.006;73.460;2023-06-26T05:25:58;11.45;;;3.42;;
59374;SDS011;45172;55.006;73.460;2023-06-26T05:28:24;13.50;;;3.40;;
59374;SDS011;45172;55.006;73.460;2023-06-26T05:30:52;10.48;;;3.22;;
59374;SDS011;45172;55.006;73.460;2023-06-26T05:33:19;6.55;;;3.20;;
59374;SDS011;45172;55.006;73.460;2023-06-26T05:35:48;5.80;;;3.20;;
59374;SDS011;45172;55.006;73.460;2023-06-26T05:38:17;4.35;;;3.30;;
59374;SDS011;45172;55.006;73.460;2023-06-26T05:40:44;8.88;;;3.22;;
59374;SDS011;45172;55.006;73.460;2023-06-26T05:43:13;10.27;;;3.33;;
59374;SDS011;45172;55.006;73.460;2023-06-26T05:45:39;7.38;;;2.90;;
59374;SDS011;45172;55.006;73.460;2023-06-26T05:48:06;5.53;;;2.97;;
59374;SDS011;45172;55.006;73.460;2023-06-26T05:50:33;8.90;;;3.20;;
59374;SDS011;45172;55.006;73.460;2023-06-26T05:53:00;13.48;;;3.53;;
59374;SDS011;45172;55.006;73.460;2023-06-26T05:55:28;18.65;;;7.80;;
59374;SDS011;45172;55.006;73.460;2023-06-26T05:57:58;3.50;;;2.85;;
59374;SDS011;45172;55.006;73.460;2023-06-26T06:00:25;8.23;;;4.85;;
59374;SDS011;45172;55.006;73.460;2023-06-26T06:02:52;11.27;;;3.03;;
59374;SDS011;45172;55.006;73.460;2023-06-26T06:05:22;8.43;;;3.08;;
59374;SDS011;45172;55.006;73.460;2023-06-26T06:07:49;11.65;;;3.05;;
59374;SDS011;45172;55.006;73.460;2023-06-26T06:10:15;16.70;;;3.20;;
59374;SDS011;45172;55.006;73.460;2023-06-26T06:12:42;6.25;;;2.60;;
59374;SDS011;45172;55.006;73.460;2023-06-26T06:15:08;7.13;;;3.22;;
59374;SDS011;45172;55.006;73.460;2023-06-26T06:17:34;6.22;;;3.28;;
59374;SDS011;45172;55.006;73.460;2023-06-26T06:20:00;20.98;;;4.57;;
59374;SDS011;45172;55.006;73.460;2023-06-26T06:22:26;17.15;;;10.25;;
59374;SDS011;45172;55.006;73.460;2023-06-26T06:24:52;9.00;;;4.13;;
59374;SDS011;45172;55.006;73.460;2023-06-26T06:27:18;10.30;;;4.40;;
59374;SDS011;45172;55.006;73.460;2023-06-26T06:29:44;10.10;;;5.90;;
59374;SDS011;45172;55.006;73.460;2023-06-26T06:32:11;11.32;;;5.65;;
59374;SDS011;45172;55.006;73.460;2023-06-26T06:34:37;20.63;;;11.20;;
59374;SDS011;45172;55.006;73.460;2023-06-26T06:37:03;25.20;;;15.27;;
59374;SDS011;45172;55.006;73.460;2023-06-26T06:39:29;9.80;;;4.35;;
59374;SDS011;45172;55.006;73.460;2023-06-26T06:41:55;11.57;;;3.05;;
59374;SDS011;45172;55.006;73.460;2023-06-26T06:44:21;7.88;;;3.33;;
59374;SDS011;45172;55.006;73.460;2023-06-26T06:46:49;13.23;;;3.53;;
59374;SDS011;45172;55.006;73.460;2023-06-26T06:49:15;8.80;;;4.35;;
59374;SDS011;45172;55.006;73.460;2023-06-26T06:51:41;36.88;;;24.77;;
59374;SDS011;45172;55.006;73.460;2023-06-26T06:54:07;33.78;;;18.50;;
59374;SDS011;45172;55.006;73.460;2023-06-26T06:56:33;15.35;;;5.13;;
59374;SDS011;45172;55.006;73.460;2023-06-26T06:58:59;16.45;;;10.30;;
59374;SDS011;45172;55.006;73.460;2023-06-26T07:01:25;30.73;;;21.55;;
59374;SDS011;45172;55.006;73.460;2023-06-26T07:03:50;21.13;;;14.02;;
59374;SDS011;45172;55.006;73.460;2023-06-26T07:06:17;6.72;;;5.70;;
59374;SDS011;45172;55.006;73.460;2023-06-26T07:08:43;14.70;;;3.67;;
59374;SDS011;45172;55.006;73.460;2023-06-26T07:11:09;17.23;;;3.55;;
59374;SDS011;45172;55.006;73.460;2023-06-26T07:13:35;10.25;;;5.35;;
59374;SDS011;45172;55.006;73.460;2023-06-26T07:16:01;13.20;;;6.75;;
59374;SDS011;45172;55.006;73.460;2023-06-26T07:18:27;11.50;;;4.43;;
59374;SDS011;45172;55.006;73.460;2023-06-26T07:20:53;14.40;;;4.57;;
59374;SDS011;45172;55.006;73.460;2023-06-26T07:23:19;7.07;;;4.78;;
59374;SDS011;45172;55.006;73.460;2023-06-26T07:25:46;8.98;;;4.30;;
59374;SDS011;45172;55.006;73.460;2023-06-26T07:28:13;9.32;;;3.70;;
59374;SDS011;45172;55.006;73.460;2023-06-26T07:30:39;11.68;;;2.42;;
59374;SDS011;45172;55.006;73.460;2023-06-26T07:33:06;6.55;;;2.63;;
59374;SDS011;45172;55.006;73.460;2023-06-26T07:35:33;19.83;;;2.85;;
59374;SDS011;45172;55.006;73.460;2023-06-26T07:37:59;9.60;;;2.88;;
59374;SDS011;45172;55.006;73.460;2023-06-26T07:40:27;4.95;;;2.25;;
59374;SDS011;45172;55.006;73.460;2023-06-26T07:42:54;6.20;;;2.10;;
59374;SDS011;45172;55.006;73.460;2023-06-26T07:45:20;5.68;;;2.25;;
59374;SDS011;45172;55.006;73.460;2023-06-26T07:47:46;10.60;;;2.78;;
59374;SDS011;45172;55.006;73.460;2023-06-26T07:50:13;4.80;;;2.50;;
59374;SDS011;45172;55.006;73.460;2023-06-26T07:52:44;3.80;;;2.17;;
59374;SDS011;45172;55.006;73.460;2023-06-26T07:55:11;8.60;;;2.85;;
59374;SDS011;45172;55.006;73.460;2023-06-26T07:57:37;5.53;;;3.00;;
59374;SDS011;45172;55.006;73.460;2023-06-26T08:00:03;8.95;;;3.97;;
59374;SDS011;45172;55.006;73.460;2023-06-26T08:02:33;18.20;;;4.03;;
59374;SDS011;45172;55.006;73.460;2023-06-26T08:04:59;12.13;;;4.18;;
59374;SDS011;45172;55.006;73.460;2023-06-26T08:07:25;17.35;;;4.53;;
59374;SDS011;45172;55.006;73.460;2023-06-26T08:09:51;13.43;;;5.35;;
59374;SDS011;45172;55.006;73.460;2023-06-26T08:12:17;21.00;;;7.22;;
59374;SDS011;45172;55.006;73.460;2023-06-26T08:14:43;18.77;;;6.00;;
59374;SDS011;45172;55.006;73.460;2023-06-26T08:17:10;16.63;;;7.05;;
59374;SDS011;45172;55.006;73.460;2023-06-26T08:19:37;28.23;;;13.80;;
59374;SDS011;45172;55.006;73.460;2023-06-26T08:22:02;33.33;;;11.30;;
59374;SDS011;45172;55.006;73.460;2023-06-26T08:24:29;19.33;;;7.70;;
59374;SDS011;45172;55.006;73.460;2023-06-26T08:26:55;15.15;;;8.93;;
59374;SDS011;45172;55.006;73.460;2023-06-26T08:29:20;19.90;;;10.93;;
59374;SDS011;45172;55.006;73.460;2023-06-26T08:31:47;13.93;;;8.57;;
59374;SDS011;45172;55.006;73.460;2023-06-26T08:34:13;16.85;;;8.07;;
59374;SDS011;45172;55.006;73.460;2023-06-26T08:36:39;17.88;;;7.80;;
59374;SDS011;45172;55.006;73.460;2023-06-26T08:39:06;15.30;;;8.63;;
59374;SDS011;45172;55.006;73.460;2023-06-26T08:41:34;14.55;;;8.55;;
59374;SDS011;45172;55.006;73.460;2023-06-26T08:44:00;11.75;;;7.97;;
59374;SDS011;45172;55.006;73.460;2023-06-26T08:46:26;15.73;;;9.98;;
59374;SDS011;45172;55.006;73.460;2023-06-26T08:49:00;19.77;;;10.77;;
59374;SDS011;45172;55.006;73.460;2023-06-26T08:51:31;16.23;;;10.00;;
59374;SDS011;45172;55.006;73.460;2023-06-26T08:54:02;16.10;;;10.30;;
59374;SDS011;45172;55.006;73.460;2023-06-26T08:56:39;21.80;;;17.27;;
59374;SDS011;45172;55.006;73.460;2023-06-26T08:59:08;15.55;;;9.18;;
59374;SDS011;45172;55.006;73.460;2023-06-26T09:01:40;9.20;;;6.28;;
59374;SDS011;45172;55.006;73.460;2023-06-26T09:04:07;9.88;;;7.60;;
59374;SDS011;45172;55.006;73.460;2023-06-26T09:06:33;12.18;;;7.88;;
59374;SDS011;45172;55.006;73.460;2023-06-26T09:08:59;11.93;;;7.63;;
59374;SDS011;45172;55.006;73.460;2023-06-26T09:11:25;18.95;;;9.05;;
59374;SDS011;45172;55.006;73.460;2023-06-26T09:13:52;18.10;;;10.57;;
59374;SDS011;45172;55.006;73.460;2023-06-26T09:16:23;20.60;;;10.85;;
59374;SDS011;45172;55.006;73.460;2023-06-26T09:18:52;23.48;;;10.82;;
59374;SDS011;45172;55.006;73.460;2023-06-26T09:21:18;16.63;;;10.48;;
59374;SDS011;45172;55.006;73.460;2023-06-26T09:23:44;13.45;;;7.85;;
59374;SDS011;45172;55.006;73.460;2023-06-26T09:26:11;13.18;;;7.10;;
59374;SDS011;45172;55.006;73.460;2023-06-26T09:28:37;12.00;;;7.85;;
59374;SDS011;45172;55.006;73.460;2023-06-26T09:31:05;16.42;;;8.15;;
59374;SDS011;45172;55.006;73.460;2023-06-26T09:33:34;12.15;;;8.05;;
59374;SDS011;45172;55.006;73.460;2023-06-26T09:36:07;19.75;;;8.88;;
59374;SDS011;45172;55.006;73.460;2023-06-26T09:38:37;27.23;;;10.43;;
59374;SDS011;45172;55.006;73.460;2023-06-26T09:41:04;29.10;;;10.02;;
59374;SDS011;45172;55.006;73.460;2023-06-26T09:43:30;21.10;;;7.15;;
59374;SDS011;45172;55.006;73.460;2023-06-26T09:45:57;17.55;;;6.50;;
59374;SDS011;45172;55.006;73.460;2023-06-26T09:48:24;21.25;;;6.95;;
59374;SDS011;45172;55.006;73.460;2023-06-26T09:50:50;20.52;;;6.97;;
59374;SDS011;45172;55.006;73.460;2023-06-26T09:53:16;21.40;;;6.57;;
59374;SDS011;45172;55.006;73.460;2023-06-26T09:55:44;17.42;;;7.07;;
59374;SDS011;45172;55.006;73.460;2023-06-26T09:58:10;22.25;;;7.00;;
59374;SDS011;45172;55.006;73.460;2023-06-26T10:00:41;22.13;;;6.90;;
59374;SDS011;45172;55.006;73.460;2023-06-26T10:03:11;31.40;;;7.93;;
59374;SDS011;45172;55.006;73.460;2023-06-26T10:05:40;15.48;;;6.18;;
59374;SDS011;45172;55.006;73.460;2023-06-26T10:08:06;17.70;;;6.47;;
59374;SDS011;45172;55.006;73.460;2023-06-26T10:10:34;17.77;;;5.85;;
59374;SDS011;45172;55.006;73.460;2023-06-26T10:13:04;18.00;;;5.90;;
59374;SDS011;45172;55.006;73.460;2023-06-26T10:15:45;33.33;;;7.30;;
59374;SDS011;45172;55.006;73.460;2023-06-26T10:18:12;12.20;;;5.97;;
59374;SDS011;45172;55.006;73.460;2023-06-26T10:20:41;10.93;;;5.40;;
59374;SDS011;45172;55.006;73.460;2023-06-26T10:23:10;10.73;;;5.85;;
59374;SDS011;45172;55.006;73.460;2023-06-26T10:25:37;11.00;;;6.18;;
59374;SDS011;45172;55.006;73.460;2023-06-26T10:28:09;14.88;;;6.63;;
59374;SDS011;45172;55.006;73.460;2023-06-26T10:30:38;9.23;;;5.90;;
59374;SDS011;45172;55.006;73.460;2023-06-26T10:33:05;8.70;;;5.65;;
59374;SDS011;45172;55.006;73.460;2023-06-26T10:35:33;6.30;;;4.90;;
59374;SDS011;45172;55.006;73.460;2023-06-26T10:38:02;8.02;;;5.18;;
59374;SDS011;45172;55.006;73.460;2023-06-26T10:40:42;8.60;;;5.18;;
59374;SDS011;45172;55.006;73.460;2023-06-26T10:43:14;9.35;;;4.40;;
59374;SDS011;45172;55.006;73.460;2023-06-26T10:45:47;6.18;;;4.30;;
59374;SDS011;45172;55.006;73.460;2023-06-26T10:48:20;6.20;;;3.33;;
59374;SDS011;45172;55.006;73.460;2023-06-26T10:50:47;4.30;;;3.05;;
59374;SDS011;45172;55.006;73.460;2023-06-26T11:03:44;3.08;;;2.65;;
59374;SDS011;45172;55.006;73.460;2023-06-26T11:14:23;7.63;;;2.90;;
59374;SDS011;45172;55.006;73.460;2023-06-26T11:16:50;8.40;;;3.05;;
59374;SDS011;45172;55.006;73.460;2023-06-26T11:19:17;3.10;;;2.78;;
59374;SDS011;45172;55.006;73.460;2023-06-26T11:21:44;5.78;;;2.80;;
59374;SDS011;45172;55.006;73.460;2023-06-26T11:24:12;6.35;;;2.60;;
59374;SDS011;45172;55.006;73.460;2023-06-26T11:26:39;4.93;;;2.60;;
59374;SDS011;45172;55.006;73.460;2023-06-26T11:29:06;5.45;;;2.90;;
59374;SDS011;45172;55.006;73.460;2023-06-26T11:31:36;7.05;;;2.80;;
59374;SDS011;45172;55.006;73.460;2023-06-26T11:34:04;8.05;;;2.88;;
59374;SDS011;45172;55.006;73.460;2023-06-26T11:36:36;6.78;;;3.03;;
59374;SDS011;45172;55.006;73.460;2023-06-26T11:39:04;5.47;;;3.03;;
59374;SDS011;45172;55.006;73.460;2023-06-26T11:41:32;5.13;;;3.03;;
59374;SDS011;45172;55.006;73.460;2023-06-26T11:44:18;21.75;;;2.63;;
59374;SDS011;45172;55.006;73.460;2023-06-26T11:46:45;4.55;;;2.70;;
59374;SDS011;45172;55.006;73.460;2023-06-26T11:49:12;6.93;;;2.72;;
59374;SDS011;45172;55.006;73.460;2023-06-26T11:51:37;8.00;;;2.45;;
59374;SDS011;45172;55.006;73.460;2023-06-26T11:54:06;5.13;;;2.60;;
59374;SDS011;45172;55.006;73.460;2023-06-26T11:56:32;38.80;;;24.45;;
59374;SDS011;45172;55.006;73.460;2023-06-26T12:01:31;5.47;;;3.13;;
59374;SDS011;45172;55.006;73.460;2023-06-26T12:03:59;5.10;;;2.40;;
59374;SDS011;45172;55.006;73.460;2023-06-26T12:06:29;8.95;;;2.70;;
59374;SDS011;45172;55.006;73.460;2023-06-26T12:08:57;7.40;;;2.50;;
59374;SDS011;45172;55.006;73.460;2023-06-26T12:11:26;10.45;;;2.85;;
59374;SDS011;45172;55.006;73.460;2023-06-26T12:13:54;5.85;;;2.70;;
59374;SDS011;45172;55.006;73.460;2023-06-26T12:16:20;6.03;;;2.70;;
59374;SDS011;45172;55.006;73.460;2023-06-26T12:18:47;6.07;;;2.25;;
59374;SDS011;45172;55.006;73.460;2023-06-26T12:24:00;5.47;;;2.67;;
59374;SDS011;45172;55.006;73.460;2023-06-26T12:26:27;7.03;;;2.72;;
59374;SDS011;45172;55.006;73.460;2023-06-26T12:29:01;7.18;;;2.80;;
59374;SDS011;45172;55.006;73.460;2023-06-26T12:31:32;9.25;;;2.33;;
59374;SDS011;45172;55.006;73.460;2023-06-26T12:33:59;9.45;;;2.15;;
59374;SDS011;45172;55.006;73.460;2023-06-26T12:36:26;12.32;;;2.28;;
59374;SDS011;45172;55.006;73.460;2023-06-26T12:38:53;7.07;;;2.35;;
59374;SDS011;45172;55.006;73.460;2023-06-26T12:41:20;6.15;;;1.98;;
59374;SDS011;45172;55.006;73.460;2023-06-26T12:43:55;7.90;;;1.90;;
59374;SDS011;45172;55.006;73.460;2023-06-26T12:46:32;9.00;;;2.45;;
59374;SDS011;45172;55.006;73.460;2023-06-26T12:49:00;6.18;;;2.40;;
59374;SDS011;45172;55.006;73.460;2023-06-26T12:51:27;5.20;;;3.03;;
59374;SDS011;45172;55.006;73.460;2023-06-26T12:53:54;7.40;;;2.92;;
59374;SDS011;45172;55.006;73.460;2023-06-26T12:56:20;11.07;;;3.55;;
59374;SDS011;45172;55.006;73.460;2023-06-26T12:58:47;6.93;;;2.83;;
59374;SDS011;45172;55.006;73.460;2023-06-26T13:01:13;6.90;;;3.30;;
59374;SDS011;45172;55.006;73.460;2023-06-26T13:03:42;7.35;;;3.00;;
59374;SDS011;45172;55.006;73.460;2023-06-26T13:06:08;6.47;;;3.20;;
59374;SDS011;45172;55.006;73.460;2023-06-26T13:08:34;6.55;;;2.50;;
59374;SDS011;45172;55.006;73.460;2023-06-26T13:11:06;4.97;;;2.47;;
59374;SDS011;45172;55.006;73.460;2023-06-26T13:13:32;6.68;;;2.70;;
59374;SDS011;45172;55.006;73.460;2023-06-26T13:15:58;3.08;;;2.50;;
59374;SDS011;45172;55.006;73.460;2023-06-26T13:18:24;4.90;;;3.42;;
59374;SDS011;45172;55.006;73.460;2023-06-26T13:20:50;8.02;;;3.88;;
59374;SDS011;45172;55.006;73.460;2023-06-26T13:23:16;7.03;;;3.38;;
59374;SDS011;45172;55.006;73.460;2023-06-26T13:25:44;5.57;;;3.22;;
59374;SDS011;45172;55.006;73.460;2023-06-26T13:28:11;8.73;;;3.63;;
59374;SDS011;45172;55.006;73.460;2023-06-26T13:30:38;7.47;;;3.38;;
59374;SDS011;45172;55.006;73.460;2023-06-26T13:33:05;7.07;;;3.55;;
59374;SDS011;45172;55.006;73.460;2023-06-26T13:35:32;9.45;;;3.20;;
59374;SDS011;45172;55.006;73.460;2023-06-26T13:37:58;5.65;;;3.70;;
59374;SDS011;45172;55.006;73.460;2023-06-26T13:40:24;5.85;;;3.70;;
59374;SDS011;45172;55.006;73.460;2023-06-26T13:42:50;5.00;;;3.78;;
59374;SDS011;45172;55.006;73.460;2023-06-26T13:45:16;8.10;;;4.70;;
59374;SDS011;45172;55.006;73.460;2023-06-26T13:47:42;13.05;;;4.88;;
59374;SDS011;45172;55.006;73.460;2023-06-26T13:50:09;7.97;;;4.82;;
59374;SDS011;45172;55.006;73.460;2023-06-26T13:52:35;8.40;;;5.22;;
59374;SDS011;45172;55.006;73.460;2023-06-26T13:55:02;10.02;;;6.03;;
59374;SDS011;45172;55.006;73.460;2023-06-26T13:57:30;11.85;;;5.93;;
59374;SDS011;45172;55.006;73.460;2023-06-26T13:59:58;9.65;;;5.95;;
59374;SDS011;45172;55.006;73.460;2023-06-26T14:02:24;9.13;;;6.68;;
59374;SDS011;45172;55.006;73.460;2023-06-26T14:04:51;12.82;;;6.45;;
59374;SDS011;45172;55.006;73.460;2023-06-26T14:07:18;6.35;;;5.75;;
59374;SDS011;45172;55.006;73.460;2023-06-26T14:09:44;7.03;;;5.18;;
59374;SDS011;45172;55.006;73.460;2023-06-26T14:12:10;11.57;;;5.43;;
59374;SDS011;45172;55.006;73.460;2023-06-26T14:14:36;10.32;;;5.30;;
59374;SDS011;45172;55.006;73.460;2023-06-26T14:17:02;8.07;;;4.90;;
59374;SDS011;45172;55.006;73.460;2023-06-26T14:19:31;10.20;;;5.43;;
59374;SDS011;45172;55.006;73.460;2023-06-26T14:21:57;7.13;;;5.20;;
59374;SDS011;45172;55.006;73.460;2023-06-26T14:24:24;7.60;;;4.60;;
59374;SDS011;45172;55.006;73.460;2023-06-26T14:26:51;14.38;;;5.05;;
59374;SDS011;45172;55.006;73.460;2023-06-26T14:29:17;8.75;;;4.35;;
59374;SDS011;45172;55.006;73.460;2023-06-26T14:31:43;14.05;;;9.85;;
59374;SDS011;45172;55.006;73.460;2023-06-26T14:34:09;4.88;;;4.18;;
59374;SDS011;45172;55.006;73.460;2023-06-26T14:36:36;9.80;;;4.50;;
59374;SDS011;45172;55.006;73.460;2023-06-26T14:39:16;7.85;;;4.80;;
59374;SDS011;45172;55.006;73.460;2023-06-26T14:41:42;9.52;;;6.60;;
59374;SDS011;45172;55.006;73.460;2023-06-26T14:44:08;10.38;;;5.90;;
59374;SDS011;45172;55.006;73.460;2023-06-26T14:46:36;8.25;;;5.95;;
59374;SDS011;45172;55.006;73.460;2023-06-26T14:49:03;10.65;;;5.20;;
59374;SDS011;45172;55.006;73.460;2023-06-26T14:51:29;8.50;;;4.82;;
59374;SDS011;45172;55.006;73.460;2023-06-26T14:53:55;5.78;;;4.38;;